Time;durP1;ratioP1;P1;durP2;ratioP2;P2;SDS_P1;SDS_P2;PMS_P1;PMS_P2;Temp;Humidity;BMP_temperature;BMP_pressure;BME280_temperature;BME280_humidity;BME280_pressure;Samples;Min_cycle;Max_cycle;Signal;HPM_P1;HPM_P2
2023/06/30 00:00:15;;;;;;;0.00;0.00;;;22.00;99.90;;;;;;7380458;19;20149;-70
2023/06/30 00:02:51;;;;;;;0.00;0.00;;;22.00;99.90;;;;;;7376864;19;20187;-71
2023/06/30 00:05:20;;;;;;;0.00;0.00;;;22.00;99.90;;;;;;7366366;19;20157;-69
2023/06/30 00:07:49;;;;;;;0.00;0.00;;;22.00;99.90;;;;;;7378788;19;20153;-71
2023/06/30 00:10:18;;;;;;;0.00;0.00;;;21.90;99.90;;;;;;7379669;19;20157;-70
2023/06/30 00:12:47;;;;;;;0.00;0.00;;;21.90;99.90;;;;;;7378101;19;20205;-71
2023/06/30 00:15:16;;;;;;;0.00;0.00;;;21.90;99.90;;;;;;7375739;19;20178;-70
2023/06/30 00:17:45;;;;;;;0.00;0.00;;;21.90;99.90;;;;;;7378174;19;20616;-70
2023/06/30 00:20:16;;;;;;;0.00;0.00;;;21.90;99.90;;;;;;7380382;19;20149;-70
2023/06/30 00:22:45;;;;;;;0.00;0.00;;;21.80;99.90;;;;;;7377908;19;20196;-70
2023/06/30 00:25:14;;;;;;;0.00;0.00;;;21.80;99.90;;;;;;7376724;19;20160;-70
2023/06/30 00:27:42;;;;;;;0.00;0.00;;;21.80;99.90;;;;;;7378105;19;20186;-70
2023/06/30 00:30:12;;;;;;;0.00;0.00;;;21.80;99.90;;;;;;7379165;19;20149;-71
2023/06/30 00:32:40;;;;;;;0.00;0.00;;;21.80;99.90;;;;;;7375607;19;20183;-69
2023/06/30 00:35:10;;;;;;;0.00;0.00;;;21.80;99.90;;;;;;7374718;19;20648;-70
2023/06/30 00:37:41;;;;;;;0.00;0.00;;;21.80;99.90;;;;;;7378491;19;20152;-70
2023/06/30 00:40:14;;;;;;;0.00;0.00;;;21.80;99.90;;;;;;7379395;19;20156;-70
2023/06/30 00:42:42;;;;;;;0.00;0.00;;;21.80;99.90;;;;;;7376247;19;20188;-71
2023/06/30 00:45:14;;;;;;;0.00;0.00;;;21.80;99.90;;;;;;7375055;19;20193;-70
2023/06/30 00:47:43;;;;;;;0.00;0.00;;;21.80;99.90;;;;;;7376629;19;20141;-71
2023/06/30 00:50:13;;;;;;;0.00;0.00;;;21.70;99.90;;;;;;7378608;19;20149;-70
2023/06/30 00:52:48;;;;;;;0.00;0.00;;;21.70;99.90;;;;;;7376703;19;20180;-70
2023/06/30 00:55:18;;;;;;;0.00;0.00;;;21.60;99.90;;;;;;7374522;19;20153;-70
2023/06/30 00:57:47;;;;;;;0.00;0.00;;;21.60;99.90;;;;;;7377887;19;20145;-69
2023/06/30 01:00:17;;;;;;;0.00;0.00;;;21.60;99.90;;;;;;7378914;19;20160;-70
2023/06/30 01:02:52;;;;;;;0.00;0.00;;;21.60;99.90;;;;;;7376789;19;20168;-70
2023/06/30 01:05:27;;;;;;;0.00;0.00;;;21.50;99.90;;;;;;7374965;19;20148;-71
2023/06/30 01:08:08;;;;;;;0.00;0.00;;;21.50;99.90;;;;;;7377568;19;20152;-70
2023/06/30 01:10:37;;;;;;;0.00;0.00;;;21.50;99.90;;;;;;7376851;19;20152;-69
2023/06/30 01:13:08;;;;;;;0.00;0.00;;;21.40;99.90;;;;;;7376479;19;20195;-71
2023/06/30 01:15:38;;;;;;;0.00;0.00;;;21.40;99.90;;;;;;7373074;19;20189;-70
2023/06/30 01:18:08;;;;;;;0.00;0.00;;;21.40;99.90;;;;;;7377257;19;20229;-70
2023/06/30 01:20:40;;;;;;;0.00;0.00;;;21.30;99.90;;;;;;7377049;19;20189;-70
2023/06/30 01:23:17;;;;;;;0.00;0.00;;;21.30;99.90;;;;;;7375491;19;20192;-70
2023/06/30 01:25:47;;;;;;;0.00;0.00;;;21.30;99.90;;;;;;7375334;19;20141;-71
2023/06/30 01:28:17;;;;;;;0.00;0.00;;;21.20;99.90;;;;;;7376275;19;20155;-70
2023/06/30 01:30:46;;;;;;;0.00;0.00;;;21.20;99.90;;;;;;7376618;19;20148;-70
2023/06/30 01:33:15;;;;;;;0.00;0.00;;;21.20;99.90;;;;;;7374432;19;20212;-70
2023/06/30 01:35:44;;;;;;;0.00;0.00;;;21.20;99.90;;;;;;7373336;19;20165;-70
2023/06/30 01:38:15;;;;;;;0.00;0.00;;;21.20;99.90;;;;;;7377245;19;20148;-70
2023/06/30 01:40:44;;;;;;;0.00;0.00;;;21.20;99.90;;;;;;7376826;19;20174;-70
2023/06/30 01:43:13;;;;;;;0.00;0.00;;;21.20;99.90;;;;;;7374853;19;20568;-69
2023/06/30 01:45:43;;;;;;;0.00;0.00;;;21.20;99.90;;;;;;7374474;19;20173;-70
2023/06/30 01:48:12;;;;;;;0.00;0.00;;;21.20;99.90;;;;;;7376721;19;20148;-69
2023/06/30 01:50:43;;;;;;;0.00;0.00;;;21.20;99.90;;;;;;7375375;19;20147;-68
2023/06/30 01:53:16;;;;;;;0.00;0.00;;;21.10;99.90;;;;;;7374981;19;20206;-70
2023/06/30 01:55:49;;;;;;;0.00;0.00;;;21.10;99.90;;;;;;7373712;19;20150;-69
2023/06/30 01:58:19;;;;;;;0.00;0.00;;;21.10;99.90;;;;;;7376805;19;20153;-69
2023/06/30 02:00:48;;;;;;;0.00;0.00;;;21.10;99.90;;;;;;7375569;19;20753;-70
2023/06/30 02:03:16;;;;;;;0.00;0.00;;;21.10;99.90;;;;;;7374205;19;20189;-70
2023/06/30 02:05:45;;;;;;;0.00;0.00;;;21.10;99.90;;;;;;7373391;19;20623;-70
2023/06/30 02:08:18;;;;;;;0.00;0.00;;;21.10;99.90;;;;;;7376135;19;20160;-69
2023/06/30 02:10:47;;;;;;;0.00;0.00;;;21.10;99.90;;;;;;7374888;19;20650;-70
2023/06/30 02:13:16;;;;;;;0.00;0.00;;;21.10;99.90;;;;;;7372968;19;20186;-70
2023/06/30 02:15:45;;;;;;;0.00;0.00;;;21.10;99.90;;;;;;7372509;19;20155;-70
2023/06/30 02:18:14;;;;;;;0.00;0.00;;;21.00;99.90;;;;;;7374081;19;20153;-70
2023/06/30 02:20:43;;;;;;;0.00;0.00;;;21.00;99.90;;;;;;7374914;19;20538;-70
2023/06/30 02:23:12;;;;;;;0.00;0.00;;;21.00;99.90;;;;;;7374576;19;20247;-70
2023/06/30 02:25:44;;;;;;;0.00;0.00;;;21.00;99.90;;;;;;7372870;19;20152;-69
2023/06/30 02:28:12;;;;;;;0.00;0.00;;;21.00;99.90;;;;;;7374137;19;20156;-69
2023/06/30 02:30:41;;;;;;;0.00;0.00;;;21.00;99.90;;;;;;7374361;19;20152;-69
2023/06/30 02:33:10;;;;;;;0.00;0.00;;;21.00;99.90;;;;;;7374644;19;20180;-70
2023/06/30 02:35:38;;;;;;;0.00;0.00;;;21.00;99.90;;;;;;7372658;19;20145;-69
2023/06/30 02:38:07;;;;;;;0.00;0.00;;;20.90;99.90;;;;;;7375256;19;20149;-70
2023/06/30 02:40:36;;;;;;;0.00;0.00;;;20.90;99.90;;;;;;7375180;19;20176;-69
2023/06/30 02:43:08;;;;;;;0.00;0.00;;;20.90;99.90;;;;;;7371952;19;20196;-69
2023/06/30 02:45:37;;;;;;;0.00;0.00;;;20.90;99.90;;;;;;7372522;19;20157;-68
2023/06/30 02:48:06;;;;;;;0.00;0.00;;;20.90;99.90;;;;;;7374600;19;20152;-69
2023/06/30 02:50:35;;;;;;;0.00;0.00;;;20.90;99.90;;;;;;7373702;19;20180;-69
2023/06/30 02:53:04;;;;;;;0.00;0.00;;;20.90;99.90;;;;;;7372394;19;20200;-70
2023/06/30 02:55:35;;;;;;;0.00;0.00;;;20.90;99.90;;;;;;7369839;19;20160;-70
2023/06/30 02:58:06;;;;;;;0.00;0.00;;;20.90;99.90;;;;;;7374400;19;20224;-70
2023/06/30 03:00:39;;;;;;;0.00;0.00;;;20.80;99.90;;;;;;7373028;19;20144;-70
2023/06/30 03:03:08;;;;;;;0.00;0.00;;;20.80;99.90;;;;;;7373562;19;20180;-70
2023/06/30 03:05:37;;;;;;;0.00;0.00;;;20.80;99.90;;;;;;7372150;19;20156;-70
2023/06/30 03:08:08;;;;;;;0.00;0.00;;;20.70;99.90;;;;;;7375500;19;20141;-69
2023/06/30 03:10:36;;;;;;;0.00;0.00;;;20.70;99.90;;;;;;7373969;19;20200;-69
2023/06/30 03:13:08;;;;;;;0.00;0.00;;;20.60;99.90;;;;;;7372990;19;20180;-70
2023/06/30 03:15:37;;;;;;;0.00;0.00;;;20.60;99.90;;;;;;7372021;19;20245;-69
2023/06/30 03:18:06;;;;;;;0.00;0.00;;;20.70;99.90;;;;;;7374160;19;20172;-69
2023/06/30 03:20:34;;;;;;;0.00;0.00;;;20.60;99.90;;;;;;7373298;19;20176;-70
2023/06/30 03:23:03;;;;;;;0.00;0.00;;;20.60;99.90;;;;;;7372700;19;20172;-69
2023/06/30 03:25:32;;;;;;;0.00;0.00;;;20.50;99.90;;;;;;7371469;19;20172;-69
2023/06/30 03:28:01;;;;;;;0.00;0.00;;;20.50;99.90;;;;;;7371797;19;20149;-69
2023/06/30 03:30:32;;;;;;;0.00;0.00;;;20.50;99.90;;;;;;7373546;19;20145;-70
2023/06/30 03:33:01;;;;;;;0.00;0.00;;;20.50;99.90;;;;;;7369047;19;20176;-70
2023/06/30 03:35:30;;;;;;;0.00;0.00;;;20.50;99.90;;;;;;7370500;19;20157;-70
2023/06/30 03:37:59;;;;;;;0.00;0.00;;;20.50;99.90;;;;;;7372440;19;20224;-70
2023/06/30 03:40:29;;;;;;;0.00;0.00;;;20.40;99.90;;;;;;7372995;19;20179;-69
2023/06/30 03:42:58;;;;;;;0.00;0.00;;;20.40;99.90;;;;;;7368146;19;20180;-70
2023/06/30 03:45:27;;;;;;;0.00;0.00;;;;;;;;;;7371435;19;20152;-68
2023/06/30 03:47:58;;;;;;;0.00;0.00;;;20.40;99.90;;;;;;7373207;19;20151;-70
2023/06/30 03:50:27;;;;;;;0.00;0.00;;;20.40;99.90;;;;;;7372038;19;20149;-69
2023/06/30 03:52:56;;;;;;;0.00;0.00;;;20.40;99.90;;;;;;7371787;19;20193;-70
2023/06/30 03:55:25;;;;;;;0.00;0.00;;;20.40;99.90;;;;;;7369594;19;20172;-71
2023/06/30 03:57:54;;;;;;;0.00;0.00;;;20.30;99.90;;;;;;7372114;19;20236;-68
2023/06/30 04:00:23;;;;;;;0.00;0.00;;;20.30;99.90;;;;;;7372632;19;20518;-70
2023/06/30 04:02:52;;;;;;;0.00;0.00;;;20.30;99.90;;;;;;7371330;19;20203;-69
2023/06/30 04:05:24;;;;;;;0.00;0.00;;;20.30;99.90;;;;;;7370659;19;20160;-70
2023/06/30 04:07:53;;;;;;;0.00;0.00;;;20.30;99.90;;;;;;7375552;19;20206;-71
2023/06/30 04:10:22;;;;;;;0.00;0.00;;;20.30;99.90;;;;;;7380199;19;20153;-70
2023/06/30 04:12:51;;;;;;;0.00;0.00;;;20.30;99.90;;;;;;7378054;19;20173;-70
2023/06/30 04:15:23;;;;;;;0.00;0.00;;;20.30;99.90;;;;;;7376694;19;20145;-70
2023/06/30 04:17:52;;;;;;;0.00;0.00;;;20.30;99.90;;;;;;7378594;19;20145;-69
2023/06/30 04:20:21;;;;;;;0.00;0.00;;;20.30;99.90;;;;;;7379849;19;20176;-70
2023/06/30 04:22:53;;;;;;;0.00;0.00;;;20.30;99.90;;;;;;7379239;19;20180;-70
2023/06/30 04:25:22;;;;;;;0.00;0.00;;;20.30;99.90;;;;;;7378690;19;20149;-70
2023/06/30 04:27:51;;;;;;;0.00;0.00;;;20.40;99.90;;;;;;7377573;19;20220;-69
2023/06/30 04:30:20;;;;;;;0.00;0.00;;;20.30;99.90;;;;;;7380189;19;20149;-69
2023/06/30 04:32:49;;;;;;;0.00;0.00;;;20.40;99.90;;;;;;7377242;19;20176;-70
2023/06/30 04:35:18;;;;;;;0.00;0.00;;;20.40;99.90;;;;;;7377304;19;20152;-69
2023/06/30 04:37:46;;;;;;;0.00;0.00;;;20.40;99.90;;;;;;7376491;19;20160;-70
2023/06/30 04:40:18;;;;;;;0.00;0.00;;;20.40;99.90;;;;;;7379418;19;20149;-70
2023/06/30 04:42:47;;;;;;;0.00;0.00;;;20.40;99.90;;;;;;7377383;19;20177;-74
2023/06/30 04:45:16;;;;;;;0.00;0.00;;;20.40;99.90;;;;;;7376959;19;20693;-73
2023/06/30 04:47:44;;;;;;;0.00;0.00;;;20.40;99.90;;;;;;7379117;19;20156;-74
2023/06/30 04:50:14;;;;;;;0.00;0.00;;;20.30;99.90;;;;;;7379082;19;20235;-73
2023/06/30 04:52:43;;;;;;;0.00;0.00;;;20.40;99.90;;;;;;7377128;19;20191;-73
2023/06/30 04:55:15;;;;;;;0.00;0.00;;;20.40;99.90;;;;;;7376263;19;20660;-73
2023/06/30 04:57:47;;;;;;;0.00;0.00;;;20.40;99.90;;;;;;7375645;19;20149;-73
2023/06/30 05:00:17;;;;;;;0.00;0.00;;;20.40;99.90;;;;;;7378625;19;20159;-74
2023/06/30 05:02:46;;;;;;;0.00;0.00;;;20.30;99.90;;;;;;7376341;19;20255;-73
2023/06/30 05:05:15;;;;;;;0.00;0.00;;;20.30;99.90;;;;;;7376736;19;20156;-72
2023/06/30 05:07:45;;;;;;;0.00;0.00;;;20.30;99.90;;;;;;7377458;19;20204;-72
2023/06/30 05:10:14;;;;;;;0.00;0.00;;;20.40;99.90;;;;;;7377640;19;20220;-73
2023/06/30 05:12:48;;;;;;;0.00;0.00;;;20.40;99.90;;;;;;7375397;19;20180;-73
2023/06/30 05:15:17;;;;;;;0.00;0.00;;;20.40;99.90;;;;;;7376251;19;20156;-72
2023/06/30 05:17:52;;;;;;;0.00;0.00;;;20.50;99.90;;;;;;7375976;19;20149;-74
2023/06/30 05:20:20;;;;;;;0.00;0.00;;;20.50;99.90;;;;;;7378195;19;20152;-74
2023/06/30 05:22:52;;;;;;;0.00;0.00;;;20.50;99.90;;;;;;7377076;19;20188;-74
2023/06/30 05:25:21;;;;;;;0.00;0.00;;;20.50;99.90;;;;;;7376005;19;20159;-73
2023/06/30 05:27:53;;;;;;;0.00;0.00;;;20.60;99.90;;;;;;7377285;19;20152;-73
2023/06/30 05:30:22;;;;;;;0.00;0.00;;;20.60;99.90;;;;;;7379076;19;20754;-74
2023/06/30 05:32:54;;;;;;;0.00;0.00;;;20.60;99.90;;;;;;7376140;19;20177;-72
2023/06/30 05:35:23;;;;;;;0.00;0.00;;;20.60;99.90;;;;;;7375025;19;20160;-72
2023/06/30 05:37:51;;;;;;;0.00;0.00;;;20.60;99.90;;;;;;7374476;19;20184;-71
2023/06/30 05:40:21;;;;;;;0.00;0.00;;;20.60;99.90;;;;;;7378657;19;20169;-73
2023/06/30 05:42:53;;;;;;;0.00;0.00;;;20.60;99.90;;;;;;7375853;19;20184;-72
2023/06/30 05:45:22;;;;;;;0.00;0.00;;;20.50;99.90;;;;;;7375747;19;20153;-74
2023/06/30 05:47:51;;;;;;;0.00;0.00;;;20.50;99.90;;;;;;7375609;19;20691;-71
2023/06/30 05:50:21;;;;;;;0.00;0.00;;;20.50;99.90;;;;;;7373393;19;20156;-71
2023/06/30 05:52:50;;;;;;;0.00;0.00;;;20.50;99.90;;;;;;7373752;19;20172;-70
2023/06/30 05:55:19;;;;;;;0.00;0.00;;;20.50;99.90;;;;;;7372976;19;20149;-69
2023/06/30 05:57:48;;;;;;;0.00;0.00;;;20.50;99.90;;;;;;7374713;19;20153;-70
2023/06/30 06:00:21;;;;;;;0.00;0.00;;;20.50;99.90;;;;;;7376999;19;20186;-70
2023/06/30 06:02:50;;;;;;;0.00;0.00;;;20.50;99.90;;;;;;7373639;19;20188;-70
2023/06/30 06:05:19;;;;;;;0.00;0.00;;;20.50;99.90;;;;;;7373722;19;20173;-69
2023/06/30 06:07:47;;;;;;;0.00;0.00;;;20.50;99.90;;;;;;7372895;19;20165;-69
2023/06/30 06:10:16;;;;;;;0.00;0.00;;;20.50;99.90;;;;;;7375171;19;20164;-69
2023/06/30 06:12:45;;;;;;;0.00;0.00;;;20.50;99.90;;;;;;7373714;19;20176;-69
2023/06/30 06:15:14;;;;;;;0.00;0.00;;;20.50;99.90;;;;;;7371687;19;20232;-67
2023/06/30 06:17:45;;;;;;;0.00;0.00;;;20.50;99.90;;;;;;7373257;19;20223;-69
2023/06/30 06:20:14;;;;;;;0.00;0.00;;;20.50;99.90;;;;;;7374678;19;20157;-70
2023/06/30 06:22:43;;;;;;;0.00;0.00;;;20.50;99.90;;;;;;7372833;19;20180;-69
2023/06/30 06:25:12;;;;;;;0.00;0.00;;;20.50;99.90;;;;;;7371555;19;20172;-68
2023/06/30 06:27:40;;;;;;;0.00;0.00;;;20.50;99.90;;;;;;7373777;19;20148;-69
2023/06/30 06:30:10;;;;;;;0.00;0.00;;;20.50;99.90;;;;;;7369448;19;20164;-70
2023/06/30 06:32:40;;;;;;;0.00;0.00;;;20.50;99.90;;;;;;7364545;19;20181;-69
2023/06/30 06:35:12;;;;;;;0.00;0.00;;;20.50;99.90;;;;;;7373376;19;20152;-70
2023/06/30 06:37:41;;;;;;;0.00;0.00;;;20.50;99.90;;;;;;7373414;19;20144;-69
2023/06/30 06:40:11;;;;;;;0.00;0.00;;;20.60;99.90;;;;;;7374798;19;20153;-71
2023/06/30 06:42:39;;;;;;;0.00;0.00;;;20.60;99.90;;;;;;7372285;19;20188;-69
2023/06/30 06:45:10;;;;;;;0.00;0.00;;;20.60;99.90;;;;;;7372352;19;20201;-67
2023/06/30 06:48:08;;;;;;;0.00;0.00;;;20.70;99.90;;;;;;7373504;19;20169;-68
2023/06/30 06:50:40;;;;;;;0.00;0.00;;;20.70;99.90;;;;;;7373073;19;20157;-68
2023/06/30 06:53:09;;;;;;;0.00;0.00;;;20.80;99.90;;;;;;7371820;19;20185;-69
2023/06/30 06:55:39;;;;;;;0.00;0.00;;;20.80;99.90;;;;;;7371864;19;20184;-68
2023/06/30 06:58:07;;;;;;;0.00;0.00;;;20.80;99.90;;;;;;7371504;19;20141;-69
2023/06/30 07:00:36;;;;;;;0.00;0.00;;;20.70;99.90;;;;;;7375034;19;20612;-68
2023/06/30 07:03:05;;;;;;;0.00;0.00;;;20.70;99.90;;;;;;7370554;19;20181;-68
2023/06/30 07:05:34;;;;;;;0.00;0.00;;;20.70;99.90;;;;;;7368675;19;20167;-72
2023/06/30 07:08:07;;;;;;;0.00;0.00;;;20.70;99.90;;;;;;7373739;19;20149;-71
2023/06/30 07:10:37;;;;;;;0.00;0.00;;;20.60;99.90;;;;;;7374712;19;20228;-66
2023/06/30 07:13:06;;;;;;;0.00;0.00;;;20.60;99.90;;;;;;7372818;19;20180;-71
2023/06/30 07:15:36;;;;;;;0.00;0.00;;;20.60;99.90;;;;;;7372288;19;20156;-68
2023/06/30 07:18:05;;;;;;;0.00;0.00;;;20.60;99.90;;;;;;7372407;19;20167;-69
2023/06/30 07:20:34;;;;;;;0.00;0.00;;;20.50;99.90;;;;;;7373188;19;20152;-69
2023/06/30 07:23:06;;;;;;;0.00;0.00;;;20.50;99.90;;;;;;7372645;19;20779;-68
2023/06/30 07:25:34;;;;;;;0.00;0.00;;;20.50;99.90;;;;;;7370473;19;20149;-67
2023/06/30 07:28:04;;;;;;;0.00;0.00;;;20.50;99.90;;;;;;7373615;19;20677;-69
2023/06/30 07:30:33;;;;;;;0.00;0.00;;;20.60;99.90;;;;;;7374975;19;20152;-67
2023/06/30 07:33:02;;;;;;;0.00;0.00;;;20.50;99.90;;;;;;7369842;19;20200;-69
2023/06/30 07:35:30;;;;;;;0.00;0.00;;;20.60;99.90;;;;;;7371447;19;20148;-68
2023/06/30 07:37:59;;;;;;;0.00;0.00;;;20.50;99.90;;;;;;7371323;19;20269;-69
2023/06/30 07:40:31;;;;;;;0.00;0.00;;;20.40;99.90;;;;;;7372625;19;20148;-70
2023/06/30 07:42:59;;;;;;;0.00;0.00;;;20.40;99.90;;;;;;7375270;19;20197;-70
2023/06/30 07:45:28;;;;;;;0.00;0.00;;;20.40;99.90;;;;;;7378381;19;20200;-69
2023/06/30 07:47:57;;;;;;;0.00;0.00;;;20.30;99.90;;;;;;7379430;19;20155;-69
2023/06/30 07:50:26;;;;;;;0.00;0.00;;;20.30;99.90;;;;;;7380758;19;20152;-70
2023/06/30 07:52:55;;;;;;;0.00;0.00;;;20.20;99.90;;;;;;7378712;19;20180;-69
2023/06/30 07:55:24;;;;;;;0.00;0.00;;;20.20;99.90;;;;;;7376568;19;20153;-68
2023/06/30 07:57:56;;;;;;;0.00;0.00;;;20.20;99.90;;;;;;7378390;19;20164;-68
2023/06/30 08:00:28;;;;;;;0.00;0.00;;;20.30;99.90;;;;;;7379677;19;20157;-68
2023/06/30 08:02:57;;;;;;;0.00;0.00;;;20.30;99.90;;;;;;7379085;19;20180;-70
2023/06/30 08:05:26;;;;;;;0.00;0.00;;;20.30;99.90;;;;;;7377862;19;20180;-71
2023/06/30 08:07:55;;;;;;;0.00;0.00;;;20.30;99.90;;;;;;7379926;19;20156;-68
2023/06/30 08:10:24;;;;;;;0.00;0.00;;;20.20;99.90;;;;;;7379779;19;20168;-70
2023/06/30 08:12:56;;;;;;;0.00;0.00;;;20.20;99.90;;;;;;7378002;19;20184;-68
2023/06/30 08:15:26;;;;;;;0.00;0.00;;;20.20;99.90;;;;;;7376163;19;20152;-68
2023/06/30 08:17:56;;;;;;;0.00;0.00;;;20.20;99.90;;;;;;7374546;19;20152;-68
2023/06/30 08:20:28;;;;;;;0.00;0.00;;;20.10;99.90;;;;;;7377573;19;20149;-68
2023/06/30 08:22:57;;;;;;;0.00;0.00;;;20.10;99.90;;;;;;7377950;19;20181;-70
2023/06/30 08:25:27;;;;;;;0.00;0.00;;;20.10;99.90;;;;;;7376994;19;20156;-68
2023/06/30 08:27:58;;;;;;;0.00;0.00;;;20.10;99.90;;;;;;7380260;19;20160;-70
2023/06/30 08:30:27;;;;;;;0.00;0.00;;;20.10;99.90;;;;;;7379856;19;20167;-70
2023/06/30 08:32:56;;;;;;;0.00;0.00;;;20.10;99.90;;;;;;7377244;19;20197;-70
2023/06/30 08:35:25;;;;;;;0.00;0.00;;;20.20;99.90;;;;;;7377360;19;20166;-69
2023/06/30 08:37:54;;;;;;;0.00;0.00;;;20.20;99.90;;;;;;7377827;19;20173;-69
2023/06/30 08:40:29;;;;;;;0.00;0.00;;;20.20;99.90;;;;;;7378374;19;20215;-68
2023/06/30 08:43:02;;;;;;;0.00;0.00;;;20.20;99.90;;;;;;7376337;19;20184;-69
2023/06/30 08:45:32;;;;;;;0.00;0.00;;;20.20;99.90;;;;;;7375446;19;20166;-69
2023/06/30 08:48:07;;;;;;;0.00;0.00;;;20.30;99.90;;;;;;7373465;19;20151;-67
2023/06/30 08:50:37;;;;;;;0.00;0.00;;;20.30;99.90;;;;;;7376584;19;20148;-69
2023/06/30 08:53:07;;;;;;;0.00;0.00;;;20.30;99.90;;;;;;7374212;19;20177;-68
2023/06/30 08:55:36;;;;;;;0.00;0.00;;;20.30;99.90;;;;;;7374451;19;20152;-69
2023/06/30 08:58:07;;;;;;;0.00;0.00;;;20.30;99.90;;;;;;7372624;19;20152;-69
2023/06/30 09:00:36;;;;;;;0.00;0.00;;;20.40;99.90;;;;;;7378866;19;20164;-68
2023/06/30 09:03:06;;;;;;;0.00;0.00;;;20.30;99.90;;;;;;7377676;19;20181;-69
2023/06/30 09:05:37;;;;;;;0.00;0.00;;;20.30;99.90;;;;;;7376584;19;20153;-67
2023/06/30 09:08:11;;;;;;;0.00;0.00;;;20.40;99.90;;;;;;7375961;19;20176;-69
2023/06/30 09:10:41;;;;;;;0.00;0.00;;;20.40;99.90;;;;;;7378414;19;20160;-70
2023/06/30 09:13:14;;;;;;;0.00;0.00;;;20.30;99.90;;;;;;7375312;19;20181;-69
2023/06/30 09:15:43;;;;;;;0.00;0.00;;;20.30;99.90;;;;;;7375814;19;20152;-69
2023/06/30 09:18:13;;;;;;;0.00;0.00;;;20.20;99.90;;;;;;7375710;19;20152;-71
2023/06/30 09:20:42;;;;;;;0.00;0.00;;;20.20;99.90;;;;;;7378207;19;20181;-68
2023/06/30 09:23:11;;;;;;;0.00;0.00;;;20.20;99.90;;;;;;7365294;19;20193;-69
2023/06/30 09:25:42;;;;;;;0.00;0.00;;;20.10;99.90;;;;;;7367925;19;20178;-69
2023/06/30 09:28:15;;;;;;;0.00;0.00;;;20.10;99.90;;;;;;7374911;19;20152;-69
2023/06/30 09:30:47;;;;;;;0.00;0.00;;;20.00;99.90;;;;;;7376637;19;20141;-69
2023/06/30 09:33:17;;;;;;;0.00;0.00;;;20.00;99.90;;;;;;7369745;19;20184;-69
2023/06/30 09:35:47;;;;;;;0.00;0.00;;;20.00;99.90;;;;;;7372200;19;20152;-68
2023/06/30 09:38:19;;;;;;;0.00;0.00;;;20.00;99.90;;;;;;7369789;19;20149;-68
2023/06/30 09:40:49;;;;;;;0.00;0.00;;;20.00;99.90;;;;;;7371833;19;20152;-68
2023/06/30 09:43:24;;;;;;;0.00;0.00;;;20.00;99.90;;;;;;7370617;19;20205;-67
2023/06/30 09:45:57;;;;;;;0.00;0.00;;;20.00;99.90;;;;;;7369506;19;20152;-67
2023/06/30 09:48:31;;;;;;;0.00;0.00;;;19.90;99.90;;;;;;7375210;19;20156;-68
2023/06/30 09:51:00;;;;;;;0.00;0.00;;;19.90;99.90;;;;;;7375898;19;20160;-69
2023/06/30 09:53:37;;;;;;;0.00;0.00;;;19.80;99.90;;;;;;7374796;19;20180;-68
2023/06/30 09:56:07;;;;;;;0.00;0.00;;;19.90;99.90;;;;;;7375435;19;20212;-68
2023/06/30 09:58:39;;;;;;;0.00;0.00;;;19.90;99.90;;;;;;7372822;19;20196;-69
2023/06/30 10:01:08;;;;;;;0.00;0.00;;;19.90;99.90;;;;;;7375347;19;20716;-70
2023/06/30 10:03:36;;;;;;;0.00;0.00;;;19.90;99.90;;;;;;7372857;19;20180;-68
2023/06/30 10:06:05;;;;;;;0.00;0.00;;;19.90;99.90;;;;;;7372006;19;20151;-68
2023/06/30 10:08:38;;;;;;;0.00;0.00;;;19.90;99.90;;;;;;7375787;19;20153;-68
2023/06/30 10:11:07;;;;;;;0.00;0.00;;;19.90;99.90;;;;;;7375389;19;20199;-67
2023/06/30 10:13:40;;;;;;;0.00;0.00;;;19.90;99.90;;;;;;7372115;19;20188;-69
2023/06/30 10:16:09;;;;;;;0.00;0.00;;;20.00;99.90;;;;;;7373042;19;20149;-70
2023/06/30 10:18:44;;;;;;;0.00;0.00;;;20.10;99.90;;;;;;7374108;19;20161;-69
2023/06/30 10:21:13;;;;;;;0.00;0.00;;;20.20;99.90;;;;;;7375530;19;20152;-68
2023/06/30 10:23:44;;;;;;;0.00;0.00;;;20.30;99.90;;;;;;7372714;19;20180;-68
2023/06/30 10:26:15;;;;;;;0.00;0.00;;;20.40;99.90;;;;;;7374631;19;20157;-75
2023/06/30 10:28:48;;;;;;;0.00;0.00;;;20.30;99.90;;;;;;7376330;19;20153;-69
2023/06/30 10:31:18;;;;;;;0.00;0.00;;;20.20;99.90;;;;;;7371489;19;20157;-69
2023/06/30 10:33:47;;;;;;;0.00;0.00;;;20.00;99.90;;;;;;7368928;19;20181;-69
2023/06/30 10:36:18;;;;;;;0.00;0.00;;;19.90;99.90;;;;;;7373229;19;20152;-67
2023/06/30 10:38:48;;;;;;;0.00;0.00;;;19.80;99.90;;;;;;7372717;19;20219;-70
2023/06/30 10:41:19;;;;;;;0.00;0.00;;;19.60;99.90;;;;;;7372769;19;20152;-68
2023/06/30 10:44:09;;;;;;;0.00;0.00;;;19.60;99.90;;;;;;7371702;19;20184;-69
2023/06/30 10:46:53;;;;;;;0.00;0.00;;;19.60;99.90;;;;;;7375032;19;20144;-69
2023/06/30 10:49:24;;;;;;;0.00;0.00;;;19.60;99.90;;;;;;7373510;19;20193;-68
2023/06/30 10:51:54;;;;;;;0.00;0.00;;;19.60;99.90;;;;;;7368900;19;20167;-68
2023/06/30 10:54:24;;;;;;;0.00;0.00;;;19.60;99.90;;;;;;7368133;19;20184;-70
2023/06/30 10:56:55;;;;;;;0.00;0.00;;;19.70;99.90;;;;;;7372039;19;20164;-68
2023/06/30 10:59:26;;;;;;;0.00;0.00;;;19.70;99.90;;;;;;7370356;19;20157;-69
2023/06/30 11:02:34;;;;;;;0.00;0.00;;;19.70;99.90;;;;;;7372556;19;20191;-68
2023/06/30 11:05:22;;;;;;;0.00;0.00;;;19.70;99.90;;;;;;7369854;19;20153;-69
2023/06/30 11:07:52;;;;;;;0.00;0.00;;;19.80;99.90;;;;;;7369857;19;20144;-68
2023/06/30 11:10:29;;;;;;;0.00;0.00;;;19.90;99.90;;;;;;7371572;19;20157;-69
2023/06/30 11:12:59;;;;;;;0.00;0.00;;;20.00;99.90;;;;;;7370358;19;20180;-69
2023/06/30 11:15:41;;;;;;;0.00;0.00;;;20.00;99.90;;;;;;7369536;19;20152;-68
2023/06/30 11:18:14;;;;;;;0.00;0.00;;;20.00;99.90;;;;;;7370902;19;20181;-69
2023/06/30 11:21:00;;;;;;;0.00;0.00;;;20.00;99.90;;;;;;7373077;19;20228;-69
2023/06/30 11:23:31;;;;;;;0.00;0.00;;;20.00;99.90;;;;;;7369620;19;20620;-67
2023/06/30 11:26:00;;;;;;;0.00;0.00;;;20.00;99.90;;;;;;7370859;19;20184;-68
2023/06/30 11:28:29;;;;;;;0.00;0.00;;;20.00;99.90;;;;;;7372455;19;20163;-69
2023/06/30 11:31:02;;;;;;;0.00;0.00;;;20.00;99.90;;;;;;7369504;19;20232;-68
2023/06/30 11:33:31;;;;;;;0.00;0.00;;;20.10;99.90;;;;;;7369227;19;20175;-69
2023/06/30 11:36:00;;;;;;;0.00;0.00;;;20.20;99.90;;;;;;7373005;19;20153;-68
2023/06/30 11:38:29;;;;;;;0.00;0.00;;;20.20;99.90;;;;;;7372031;19;20145;-67
2023/06/30 11:41:00;;;;;;;0.00;0.00;;;20.30;99.90;;;;;;7371184;19;20161;-69
2023/06/30 11:43:35;;;;;;;0.00;0.00;;;20.30;99.90;;;;;;7369396;19;20261;-68
2023/06/30 11:46:07;;;;;;;0.00;0.00;;;20.30;99.90;;;;;;7372742;19;20204;-68
2023/06/30 11:48:40;;;;;;;0.00;0.00;;;20.30;99.90;;;;;;7372757;19;20149;-69
2023/06/30 11:51:08;;;;;;;0.00;0.00;;;20.30;99.90;;;;;;7371941;19;20167;-69
2023/06/30 11:53:37;;;;;;;0.00;0.00;;;20.40;99.90;;;;;;7370543;19;20184;-69
2023/06/30 11:56:07;;;;;;;0.00;0.00;;;20.50;99.90;;;;;;7371606;19;20145;-70
2023/06/30 11:58:35;;;;;;;0.00;0.00;;;20.50;99.90;;;;;;7372939;19;20182;-68
2023/06/30 12:01:08;;;;;;;0.00;0.00;;;20.60;99.90;;;;;;7373291;19;20690;-69
2023/06/30 12:03:36;;;;;;;0.00;0.00;;;20.60;99.90;;;;;;7369719;19;20185;-69
2023/06/30 12:06:06;;;;;;;0.00;0.00;;;20.60;99.90;;;;;;7372733;19;20193;-70
2023/06/30 12:08:38;;;;;;;0.00;0.00;;;20.70;99.90;;;;;;7373396;19;20145;-69
2023/06/30 12:11:07;;;;;;;0.00;0.00;;;20.70;99.90;;;;;;7372297;19;20153;-69
2023/06/30 12:13:36;;;;;;;0.00;0.00;;;20.80;99.90;;;;;;7369250;19;20256;-68
2023/06/30 12:16:08;;;;;;;0.00;0.00;;;20.80;99.90;;;;;;7370434;19;20144;-69
2023/06/30 12:18:38;;;;;;;0.00;0.00;;;20.80;99.90;;;;;;7372302;19;20148;-69
2023/06/30 12:21:12;;;;;;;0.00;0.00;;;20.80;99.90;;;;;;7372437;19;20149;-69
2023/06/30 12:23:46;;;;;;;0.00;0.00;;;20.80;99.90;;;;;;7369942;19;20193;-70
2023/06/30 12:26:15;;;;;;;0.00;0.00;;;20.80;99.90;;;;;;7371042;19;20144;-67
2023/06/30 12:28:44;;;;;;;0.00;0.00;;;20.80;99.90;;;;;;7374603;19;20159;-70
2023/06/30 12:31:16;;;;;;;0.00;0.00;;;20.80;99.90;;;;;;7378789;19;20149;-68
2023/06/30 12:33:54;;;;;;;0.00;0.00;;;20.80;99.90;;;;;;7376330;19;20177;-68
2023/06/30 12:36:23;;;;;;;0.00;0.00;;;20.90;99.90;;;;;;7377039;19;20160;-69
2023/06/30 12:38:52;;;;;;;0.00;0.00;;;21.00;99.90;;;;;;7377594;19;20152;-69
2023/06/30 12:41:20;;;;;;;0.00;0.00;;;21.10;99.90;;;;;;7376008;19;20157;-68
2023/06/30 12:43:50;;;;;;;0.00;0.00;;;21.20;99.90;;;;;;7375586;19;20188;-69
2023/06/30 12:46:21;;;;;;;0.00;0.00;;;21.30;99.90;;;;;;7377694;19;20152;-69
2023/06/30 12:48:50;;;;;;;0.00;0.00;;;21.40;99.90;;;;;;7380042;19;20153;-69
2023/06/30 12:51:19;;;;;;;0.00;0.00;;;21.40;99.90;;;;;;7377742;19;20172;-70
2023/06/30 12:53:48;;;;;;;0.00;0.00;;;21.50;99.90;;;;;;7374844;19;20180;-70
2023/06/30 12:56:16;;;;;;;0.00;0.00;;;21.60;99.90;;;;;;7376875;19;20186;-70
2023/06/30 12:58:45;;;;;;;0.00;0.00;;;21.60;99.90;;;;;;7378662;19;20499;-68
2023/06/30 13:01:14;;;;;;;0.00;0.00;;;21.70;99.90;;;;;;7378279;19;20236;-68
2023/06/30 13:03:46;;;;;;;0.00;0.00;;;21.80;99.90;;;;;;7374449;19;20180;-69